sensor_id;sensor_type;location;lat;lon;timestamp;P1;durP1;ratioP1;P2;durP2;ratioP2
8151;SDS011;4117;53.622;9.958;2022-08-14T00:02:16;1.10;;;1.00;;
8151;SDS011;4117;53.622;9.958;2022-08-14T00:04:42;1.37;;;1.10;;
8151;SDS011;4117;53.622;9.958;2022-08-14T00:07:09;1.30;;;1.07;;
8151;SDS011;4117;53.622;9.958;2022-08-14T00:09:37;1.10;;;1.00;;
8151;SDS011;4117;53.622;9.958;2022-08-14T00:12:04;1.20;;;1.00;;
8151;SDS011;4117;53.622;9.958;2022-08-14T00:14:33;1.07;;;0.97;;
8151;SDS011;4117;53.622;9.958;2022-08-14T00:17:00;1.90;;;1.10;;
8151;SDS011;4117;53.622;9.958;2022-08-14T00:19:27;3.53;;;0.90;;
8151;SDS011;4117;53.622;9.958;2022-08-14T00:21:54;1.13;;;1.00;;
8151;SDS011;4117;53.622;9.958;2022-08-14T00:24:21;1.27;;;1.17;;
8151;SDS011;4117;53.622;9.958;2022-08-14T00:26:48;1.40;;;0.90;;
8151;SDS011;4117;53.622;9.958;2022-08-14T00:29:16;0.93;;;0.87;;
8151;SDS011;4117;53.622;9.958;2022-08-14T00:31:44;1.57;;;1.30;;
8151;SDS011;4117;53.622;9.958;2022-08-14T00:34:11;0.97;;;0.87;;
8151;SDS011;4117;53.622;9.958;2022-08-14T00:36:37;0.97;;;0.80;;
8151;SDS011;4117;53.622;9.958;2022-08-14T00:39:04;1.20;;;1.10;;
8151;SDS011;4117;53.622;9.958;2022-08-14T00:41:31;1.30;;;0.90;;
8151;SDS011;4117;53.622;9.958;2022-08-14T00:43:59;1.50;;;0.90;;
8151;SDS011;4117;53.622;9.958;2022-08-14T00:46:26;1.10;;;1.00;;
8151;SDS011;4117;53.622;9.958;2022-08-14T00:48:54;1.10;;;1.00;;
8151;SDS011;4117;53.622;9.958;2022-08-14T00:51:21;1.37;;;1.10;;
8151;SDS011;4117;53.622;9.958;2022-08-14T00:53:47;1.70;;;1.00;;
8151;SDS011;4117;53.622;9.958;2022-08-14T00:56:16;1.10;;;1.00;;
8151;SDS011;4117;53.622;9.958;2022-08-14T00:58:44;1.27;;;1.10;;
8151;SDS011;4117;53.622;9.958;2022-08-14T01:01:11;1.07;;;0.97;;
8151;SDS011;4117;53.622;9.958;2022-08-14T01:03:40;1.93;;;1.00;;
8151;SDS011;4117;53.622;9.958;2022-08-14T01:06:09;1.10;;;1.00;;
8151;SDS011;4117;53.622;9.958;2022-08-14T01:08:39;1.13;;;1.00;;
8151;SDS011;4117;53.622;9.958;2022-08-14T01:11:08;1.00;;;0.90;;
8151;SDS011;4117;53.622;9.958;2022-08-14T01:13:40;1.00;;;0.90;;
8151;SDS011;4117;53.622;9.958;2022-08-14T01:16:09;1.87;;;0.90;;
8151;SDS011;4117;53.622;9.958;2022-08-14T01:18:37;1.67;;;1.23;;
8151;SDS011;4117;53.622;9.958;2022-08-14T01:21:24;1.77;;;1.00;;
8151;SDS011;4117;53.622;9.958;2022-08-14T01:23:55;1.30;;;1.00;;
8151;SDS011;4117;53.622;9.958;2022-08-14T01:26:23;1.20;;;1.10;;
8151;SDS011;4117;53.622;9.958;2022-08-14T01:28:53;3.30;;;1.07;;
8151;SDS011;4117;53.622;9.958;2022-08-14T01:31:22;1.83;;;1.00;;
8151;SDS011;4117;53.622;9.958;2022-08-14T01:33:53;1.43;;;1.00;;
8151;SDS011;4117;53.622;9.958;2022-08-14T01:36:21;1.83;;;1.00;;
8151;SDS011;4117;53.622;9.958;2022-08-14T01:38:51;1.20;;;1.00;;
8151;SDS011;4117;53.622;9.958;2022-08-14T01:41:22;1.00;;;0.90;;
8151;SDS011;4117;53.622;9.958;2022-08-14T01:43:51;1.10;;;1.00;;
8151;SDS011;4117;53.622;9.958;2022-08-14T01:46:25;1.30;;;1.10;;
8151;SDS011;4117;53.622;9.958;2022-08-14T01:48:53;1.20;;;1.10;;
8151;SDS011;4117;53.622;9.958;2022-08-14T01:51:21;1.00;;;0.90;;
8151;SDS011;4117;53.622;9.958;2022-08-14T01:53:52;4.10;;;0.97;;
8151;SDS011;4117;53.622;9.958;2022-08-14T01:56:21;1.00;;;0.90;;
8151;SDS011;4117;53.622;9.958;2022-08-14T01:58:54;1.27;;;1.07;;
8151;SDS011;4117;53.622;9.958;2022-08-14T02:01:22;1.23;;;0.97;;
8151;SDS011;4117;53.622;9.958;2022-08-14T02:03:49;1.20;;;1.00;;
8151;SDS011;4117;53.622;9.958;2022-08-14T02:06:16;1.13;;;1.03;;
8151;SDS011;4117;53.622;9.958;2022-08-14T02:08:44;1.00;;;0.80;;
8151;SDS011;4117;53.622;9.958;2022-08-14T02:11:11;1.00;;;0.90;;
8151;SDS011;4117;53.622;9.958;2022-08-14T02:13:47;1.10;;;1.00;;
8151;SDS011;4117;53.622;9.958;2022-08-14T02:16:17;0.90;;;0.90;;
8151;SDS011;4117;53.622;9.958;2022-08-14T02:18:45;1.67;;;1.03;;
8151;SDS011;4117;53.622;9.958;2022-08-14T02:21:13;1.00;;;0.90;;
8151;SDS011;4117;53.622;9.958;2022-08-14T02:23:44;1.63;;;1.00;;
8151;SDS011;4117;53.622;9.958;2022-08-14T02:26:18;1.00;;;0.80;;
8151;SDS011;4117;53.622;9.958;2022-08-14T02:28:47;1.20;;;1.10;;
8151;SDS011;4117;53.622;9.958;2022-08-14T02:31:16;1.17;;;1.00;;
8151;SDS011;4117;53.622;9.958;2022-08-14T02:33:43;1.10;;;1.00;;
8151;SDS011;4117;53.622;9.958;2022-08-14T02:36:11;1.00;;;0.90;;
8151;SDS011;4117;53.622;9.958;2022-08-14T02:38:38;1.10;;;0.90;;
8151;SDS011;4117;53.622;9.958;2022-08-14T02:41:08;1.30;;;1.10;;
8151;SDS011;4117;53.622;9.958;2022-08-14T02:43:38;1.20;;;1.10;;
8151;SDS011;4117;53.622;9.958;2022-08-14T02:46:06;1.73;;;1.10;;
8151;SDS011;4117;53.622;9.958;2022-08-14T02:48:35;1.73;;;1.00;;
8151;SDS011;4117;53.622;9.958;2022-08-14T02:51:04;1.57;;;1.00;;
8151;SDS011;4117;53.622;9.958;2022-08-14T02:53:32;0.87;;;0.73;;
8151;SDS011;4117;53.622;9.958;2022-08-14T02:55:59;3.63;;;1.10;;
8151;SDS011;4117;53.622;9.958;2022-08-14T02:58:28;0.97;;;0.87;;
8151;SDS011;4117;53.622;9.958;2022-08-14T03:00:55;1.50;;;1.00;;
8151;SDS011;4117;53.622;9.958;2022-08-14T03:03:22;1.13;;;1.00;;
8151;SDS011;4117;53.622;9.958;2022-08-14T03:05:49;0.80;;;0.80;;
8151;SDS011;4117;53.622;9.958;2022-08-14T03:08:18;1.47;;;1.03;;
8151;SDS011;4117;53.622;9.958;2022-08-14T03:10:45;1.30;;;1.10;;
8151;SDS011;4117;53.622;9.958;2022-08-14T03:13:12;1.00;;;0.90;;
8151;SDS011;4117;53.622;9.958;2022-08-14T03:15:40;2.27;;;1.10;;
8151;SDS011;4117;53.622;9.958;2022-08-14T03:18:11;3.37;;;1.03;;
8151;SDS011;4117;53.622;9.958;2022-08-14T03:20:39;1.00;;;0.90;;
8151;SDS011;4117;53.622;9.958;2022-08-14T03:23:06;0.90;;;0.80;;
8151;SDS011;4117;53.622;9.958;2022-08-14T03:25:33;1.10;;;1.00;;
8151;SDS011;4117;53.622;9.958;2022-08-14T03:28:01;0.90;;;0.90;;
8151;SDS011;4117;53.622;9.958;2022-08-14T03:30:29;0.77;;;0.77;;
8151;SDS011;4117;53.622;9.958;2022-08-14T03:32:58;1.03;;;0.90;;
8151;SDS011;4117;53.622;9.958;2022-08-14T03:35:25;1.10;;;0.97;;
8151;SDS011;4117;53.622;9.958;2022-08-14T03:37:54;1.60;;;1.00;;
8151;SDS011;4117;53.622;9.958;2022-08-14T03:40:21;1.10;;;1.00;;
8151;SDS011;4117;53.622;9.958;2022-08-14T03:42:49;1.30;;;1.03;;
8151;SDS011;4117;53.622;9.958;2022-08-14T03:45:16;0.90;;;0.90;;
8151;SDS011;4117;53.622;9.958;2022-08-14T03:47:43;1.20;;;0.90;;
8151;SDS011;4117;53.622;9.958;2022-08-14T03:50:11;1.07;;;0.97;;
8151;SDS011;4117;53.622;9.958;2022-08-14T03:52:38;1.37;;;1.00;;
8151;SDS011;4117;53.622;9.958;2022-08-14T03:55:06;1.43;;;1.00;;
8151;SDS011;4117;53.622;9.958;2022-08-14T03:57:36;0.80;;;0.73;;
8151;SDS011;4117;53.622;9.958;2022-08-14T04:00:04;3.63;;;0.93;;
8151;SDS011;4117;53.622;9.958;2022-08-14T04:02:35;3.80;;;1.20;;
8151;SDS011;4117;53.622;9.958;2022-08-14T04:05:02;1.03;;;0.93;;
8151;SDS011;4117;53.622;9.958;2022-08-14T04:07:32;2.70;;;0.90;;
8151;SDS011;4117;53.622;9.958;2022-08-14T04:09:59;1.10;;;1.00;;
8151;SDS011;4117;53.622;9.958;2022-08-14T04:12:26;1.00;;;0.90;;
8151;SDS011;4117;53.622;9.958;2022-08-14T04:14:53;1.13;;;1.00;;
8151;SDS011;4117;53.622;9.958;2022-08-14T04:17:20;0.63;;;0.53;;
8151;SDS011;4117;53.622;9.958;2022-08-14T04:19:47;1.13;;;1.00;;
8151;SDS011;4117;53.622;9.958;2022-08-14T04:22:14;0.80;;;0.80;;
8151;SDS011;4117;53.622;9.958;2022-08-14T04:24:42;1.20;;;0.97;;
8151;SDS011;4117;53.622;9.958;2022-08-14T04:27:10;1.23;;;1.07;;
8151;SDS011;4117;53.622;9.958;2022-08-14T04:29:37;3.97;;;1.00;;
8151;SDS011;4117;53.622;9.958;2022-08-14T04:32:05;2.93;;;0.90;;
8151;SDS011;4117;53.622;9.958;2022-08-14T04:34:33;1.23;;;1.10;;
8151;SDS011;4117;53.622;9.958;2022-08-14T04:37:00;2.50;;;0.90;;
8151;SDS011;4117;53.622;9.958;2022-08-14T04:39:46;1.87;;;1.03;;
8151;SDS011;4117;53.622;9.958;2022-08-14T04:42:30;0.97;;;0.87;;
8151;SDS011;4117;53.622;9.958;2022-08-14T04:45:14;0.87;;;0.80;;
8151;SDS011;4117;53.622;9.958;2022-08-14T04:47:42;1.20;;;1.00;;
8151;SDS011;4117;53.622;9.958;2022-08-14T04:50:27;1.40;;;1.10;;
8151;SDS011;4117;53.622;9.958;2022-08-14T04:52:54;3.10;;;1.07;;
8151;SDS011;4117;53.622;9.958;2022-08-14T04:55:22;1.73;;;1.00;;
8151;SDS011;4117;53.622;9.958;2022-08-14T04:57:49;1.00;;;0.90;;
8151;SDS011;4117;53.622;9.958;2022-08-14T05:00:16;1.23;;;1.10;;
8151;SDS011;4117;53.622;9.958;2022-08-14T05:02:43;1.00;;;0.90;;
8151;SDS011;4117;53.622;9.958;2022-08-14T05:05:09;0.90;;;0.90;;
8151;SDS011;4117;53.622;9.958;2022-08-14T05:07:37;1.67;;;1.00;;
8151;SDS011;4117;53.622;9.958;2022-08-14T05:10:06;1.20;;;1.00;;
8151;SDS011;4117;53.622;9.958;2022-08-14T05:12:35;1.07;;;0.97;;
8151;SDS011;4117;53.622;9.958;2022-08-14T05:15:02;0.77;;;0.70;;
8151;SDS011;4117;53.622;9.958;2022-08-14T05:17:29;1.17;;;1.00;;
8151;SDS011;4117;53.622;9.958;2022-08-14T05:19:56;1.10;;;1.00;;
8151;SDS011;4117;53.622;9.958;2022-08-14T05:22:23;1.20;;;0.97;;
8151;SDS011;4117;53.622;9.958;2022-08-14T05:24:50;1.03;;;1.00;;
8151;SDS011;4117;53.622;9.958;2022-08-14T05:27:17;1.10;;;1.00;;
8151;SDS011;4117;53.622;9.958;2022-08-14T05:29:46;2.73;;;0.90;;
8151;SDS011;4117;53.622;9.958;2022-08-14T05:32:13;1.07;;;0.97;;
8151;SDS011;4117;53.622;9.958;2022-08-14T05:34:40;1.60;;;1.00;;
8151;SDS011;4117;53.622;9.958;2022-08-14T05:37:07;1.97;;;1.10;;
8151;SDS011;4117;53.622;9.958;2022-08-14T05:39:34;1.10;;;1.00;;
8151;SDS011;4117;53.622;9.958;2022-08-14T05:42:00;0.90;;;0.77;;
8151;SDS011;4117;53.622;9.958;2022-08-14T05:44:28;1.07;;;0.97;;
8151;SDS011;4117;53.622;9.958;2022-08-14T05:46:56;1.47;;;0.83;;
8151;SDS011;4117;53.622;9.958;2022-08-14T05:49:23;1.10;;;1.00;;
8151;SDS011;4117;53.622;9.958;2022-08-14T05:51:50;1.03;;;0.93;;
8151;SDS011;4117;53.622;9.958;2022-08-14T05:54:17;3.50;;;1.00;;
8151;SDS011;4117;53.622;9.958;2022-08-14T05:56:44;1.00;;;0.90;;
8151;SDS011;4117;53.622;9.958;2022-08-14T05:59:11;1.30;;;1.00;;
8151;SDS011;4117;53.622;9.958;2022-08-14T06:01:38;1.83;;;0.90;;
8151;SDS011;4117;53.622;9.958;2022-08-14T06:04:06;1.17;;;0.90;;
8151;SDS011;4117;53.622;9.958;2022-08-14T06:06:33;1.07;;;0.97;;
8151;SDS011;4117;53.622;9.958;2022-08-14T06:09:00;1.13;;;1.03;;
8151;SDS011;4117;53.622;9.958;2022-08-14T06:11:27;1.10;;;1.00;;
8151;SDS011;4117;53.622;9.958;2022-08-14T06:13:54;0.97;;;0.90;;
8151;SDS011;4117;53.622;9.958;2022-08-14T06:16:21;0.80;;;0.80;;
8151;SDS011;4117;53.622;9.958;2022-08-14T06:18:48;1.23;;;1.00;;
8151;SDS011;4117;53.622;9.958;2022-08-14T06:21:17;1.20;;;1.10;;
8151;SDS011;4117;53.622;9.958;2022-08-14T06:23:43;1.00;;;0.90;;
8151;SDS011;4117;53.622;9.958;2022-08-14T06:26:11;0.97;;;0.90;;
8151;SDS011;4117;53.622;9.958;2022-08-14T06:28:38;1.63;;;0.80;;
8151;SDS011;4117;53.622;9.958;2022-08-14T06:31:05;1.00;;;0.90;;
8151;SDS011;4117;53.622;9.958;2022-08-14T06:33:32;1.30;;;1.20;;
8151;SDS011;4117;53.622;9.958;2022-08-14T06:35:59;1.00;;;0.90;;
8151;SDS011;4117;53.622;9.958;2022-08-14T06:38:27;1.00;;;0.90;;
8151;SDS011;4117;53.622;9.958;2022-08-14T06:40:54;4.30;;;0.90;;
8151;SDS011;4117;53.622;9.958;2022-08-14T06:43:21;3.70;;;0.97;;
8151;SDS011;4117;53.622;9.958;2022-08-14T06:45:48;1.00;;;0.87;;
8151;SDS011;4117;53.622;9.958;2022-08-14T06:48:15;1.67;;;1.20;;
8151;SDS011;4117;53.622;9.958;2022-08-14T06:50:44;1.20;;;1.10;;
8151;SDS011;4117;53.622;9.958;2022-08-14T06:53:12;1.17;;;1.00;;
8151;SDS011;4117;53.622;9.958;2022-08-14T06:55:42;1.10;;;1.00;;
8151;SDS011;4117;53.622;9.958;2022-08-14T06:58:10;0.83;;;0.83;;
8151;SDS011;4117;53.622;9.958;2022-08-14T07:00:37;4.90;;;1.07;;
8151;SDS011;4117;53.622;9.958;2022-08-14T07:03:25;1.10;;;1.00;;
8151;SDS011;4117;53.622;9.958;2022-08-14T07:06:11;1.10;;;1.00;;
8151;SDS011;4117;53.622;9.958;2022-08-14T07:08:38;3.63;;;1.00;;
8151;SDS011;4117;53.622;9.958;2022-08-14T07:11:06;1.57;;;1.23;;
8151;SDS011;4117;53.622;9.958;2022-08-14T07:13:33;1.63;;;1.10;;
8151;SDS011;4117;53.622;9.958;2022-08-14T07:16:00;1.30;;;1.10;;
8151;SDS011;4117;53.622;9.958;2022-08-14T07:18:27;1.40;;;1.00;;
8151;SDS011;4117;53.622;9.958;2022-08-14T07:20:56;1.17;;;1.03;;
8151;SDS011;4117;53.622;9.958;2022-08-14T07:23:23;1.20;;;1.10;;
8151;SDS011;4117;53.622;9.958;2022-08-14T07:25:51;5.30;;;0.90;;
8151;SDS011;4117;53.622;9.958;2022-08-14T07:28:21;2.97;;;1.00;;
8151;SDS011;4117;53.622;9.958;2022-08-14T07:30:49;2.07;;;1.03;;
8151;SDS011;4117;53.622;9.958;2022-08-14T07:33:16;1.63;;;1.23;;
8151;SDS011;4117;53.622;9.958;2022-08-14T07:35:44;1.77;;;1.20;;
8151;SDS011;4117;53.622;9.958;2022-08-14T07:38:15;1.10;;;1.00;;
8151;SDS011;4117;53.622;9.958;2022-08-14T07:40:44;4.13;;;1.23;;
8151;SDS011;4117;53.622;9.958;2022-08-14T07:43:11;1.07;;;0.97;;
8151;SDS011;4117;53.622;9.958;2022-08-14T07:45:39;1.30;;;1.20;;
8151;SDS011;4117;53.622;9.958;2022-08-14T07:48:06;1.17;;;1.03;;
8151;SDS011;4117;53.622;9.958;2022-08-14T07:50:33;2.50;;;1.20;;
8151;SDS011;4117;53.622;9.958;2022-08-14T07:53:00;1.23;;;1.10;;
8151;SDS011;4117;53.622;9.958;2022-08-14T07:55:27;1.30;;;1.20;;
8151;SDS011;4117;53.622;9.958;2022-08-14T07:57:54;1.60;;;1.10;;
8151;SDS011;4117;53.622;9.958;2022-08-14T08:00:22;1.20;;;1.10;;
8151;SDS011;4117;53.622;9.958;2022-08-14T08:02:52;1.10;;;1.00;;
8151;SDS011;4117;53.622;9.958;2022-08-14T08:05:21;3.00;;;1.10;;
8151;SDS011;4117;53.622;9.958;2022-08-14T08:07:50;4.07;;;1.20;;
8151;SDS011;4117;53.622;9.958;2022-08-14T08:10:20;1.50;;;1.17;;
8151;SDS011;4117;53.622;9.958;2022-08-14T08:12:58;1.30;;;1.20;;
8151;SDS011;4117;53.622;9.958;2022-08-14T08:15:28;1.30;;;1.20;;
8151;SDS011;4117;53.622;9.958;2022-08-14T08:17:58;2.30;;;1.40;;
8151;SDS011;4117;53.622;9.958;2022-08-14T08:20:29;1.70;;;1.20;;
8151;SDS011;4117;53.622;9.958;2022-08-14T08:22:57;3.13;;;1.17;;
8151;SDS011;4117;53.622;9.958;2022-08-14T08:25:24;1.87;;;1.17;;
8151;SDS011;4117;53.622;9.958;2022-08-14T08:27:54;1.27;;;1.10;;
8151;SDS011;4117;53.622;9.958;2022-08-14T08:30:23;1.20;;;1.10;;
8151;SDS011;4117;53.622;9.958;2022-08-14T08:32:51;1.40;;;1.27;;
8151;SDS011;4117;53.622;9.958;2022-08-14T08:35:20;1.27;;;1.17;;
8151;SDS011;4117;53.622;9.958;2022-08-14T08:37:49;2.70;;;1.33;;
8151;SDS011;4117;53.622;9.958;2022-08-14T08:40:21;1.40;;;1.27;;
8151;SDS011;4117;53.622;9.958;2022-08-14T08:42:49;1.93;;;1.43;;
8151;SDS011;4117;53.622;9.958;2022-08-14T08:45:17;1.30;;;1.20;;
8151;SDS011;4117;53.622;9.958;2022-08-14T08:47:44;1.70;;;1.30;;
8151;SDS011;4117;53.622;9.958;2022-08-14T08:50:19;1.43;;;1.30;;
8151;SDS011;4117;53.622;9.958;2022-08-14T08:52:50;1.40;;;1.30;;
8151;SDS011;4117;53.622;9.958;2022-08-14T08:55:27;3.27;;;1.20;;
8151;SDS011;4117;53.622;9.958;2022-08-14T08:57:57;1.37;;;1.23;;
8151;SDS011;4117;53.622;9.958;2022-08-14T09:00:25;1.43;;;1.10;;
8151;SDS011;4117;53.622;9.958;2022-08-14T09:02:58;2.60;;;1.20;;
8151;SDS011;4117;53.622;9.958;2022-08-14T09:05:29;1.40;;;1.30;;
8151;SDS011;4117;53.622;9.958;2022-08-14T09:08:09;1.47;;;1.23;;
8151;SDS011;4117;53.622;9.958;2022-08-14T09:10:37;1.77;;;1.23;;
8151;SDS011;4117;53.622;9.958;2022-08-14T09:13:04;1.40;;;1.30;;
8151;SDS011;4117;53.622;9.958;2022-08-14T09:15:31;1.40;;;1.17;;
8151;SDS011;4117;53.622;9.958;2022-08-14T09:17:59;1.80;;;1.30;;
8151;SDS011;4117;53.622;9.958;2022-08-14T09:20:26;1.60;;;1.40;;
8151;SDS011;4117;53.622;9.958;2022-08-14T09:22:54;1.47;;;1.30;;
8151;SDS011;4117;53.622;9.958;2022-08-14T09:25:23;4.77;;;1.33;;
8151;SDS011;4117;53.622;9.958;2022-08-14T09:27:49;1.87;;;1.47;;
8151;SDS011;4117;53.622;9.958;2022-08-14T09:30:16;3.60;;;1.40;;
8151;SDS011;4117;53.622;9.958;2022-08-14T09:32:45;1.80;;;1.60;;
8151;SDS011;4117;53.622;9.958;2022-08-14T09:35:36;1.50;;;1.37;;
8151;SDS011;4117;53.622;9.958;2022-08-14T09:38:18;1.50;;;1.40;;
8151;SDS011;4117;53.622;9.958;2022-08-14T09:40:55;1.47;;;1.30;;
8151;SDS011;4117;53.622;9.958;2022-08-14T09:43:32;1.80;;;1.33;;
8151;SDS011;4117;53.622;9.958;2022-08-14T09:46:05;2.80;;;1.70;;
8151;SDS011;4117;53.622;9.958;2022-08-14T09:48:33;1.83;;;1.50;;
8151;SDS011;4117;53.622;9.958;2022-08-14T09:51:02;2.27;;;1.50;;
8151;SDS011;4117;53.622;9.958;2022-08-14T09:53:37;2.23;;;1.70;;
8151;SDS011;4117;53.622;9.958;2022-08-14T09:56:08;1.80;;;1.47;;
8151;SDS011;4117;53.622;9.958;2022-08-14T09:58:37;1.80;;;1.60;;
8151;SDS011;4117;53.622;9.958;2022-08-14T10:01:09;1.57;;;1.33;;
8151;SDS011;4117;53.622;9.958;2022-08-14T10:03:46;2.30;;;1.60;;
8151;SDS011;4117;53.622;9.958;2022-08-14T10:06:16;1.73;;;1.40;;
8151;SDS011;4117;53.622;9.958;2022-08-14T10:08:47;1.63;;;1.53;;
8151;SDS011;4117;53.622;9.958;2022-08-14T10:11:16;1.63;;;1.30;;
8151;SDS011;4117;53.622;9.958;2022-08-14T10:13:46;1.67;;;1.27;;
8151;SDS011;4117;53.622;9.958;2022-08-14T10:16:16;4.40;;;1.50;;
8151;SDS011;4117;53.622;9.958;2022-08-14T10:19:01;1.83;;;1.60;;
8151;SDS011;4117;53.622;9.958;2022-08-14T10:21:30;1.50;;;1.40;;
8151;SDS011;4117;53.622;9.958;2022-08-14T10:23:59;1.80;;;1.40;;
8151;SDS011;4117;53.622;9.958;2022-08-14T10:26:27;3.47;;;1.57;;
8151;SDS011;4117;53.622;9.958;2022-08-14T10:29:03;2.10;;;1.50;;
8151;SDS011;4117;53.622;9.958;2022-08-14T10:31:32;3.20;;;2.00;;
8151;SDS011;4117;53.622;9.958;2022-08-14T10:34:01;1.70;;;1.60;;
8151;SDS011;4117;53.622;9.958;2022-08-14T10:36:31;2.37;;;1.50;;
8151;SDS011;4117;53.622;9.958;2022-08-14T10:39:17;2.17;;;1.73;;
8151;SDS011;4117;53.622;9.958;2022-08-14T10:41:45;1.80;;;1.50;;
8151;SDS011;4117;53.622;9.958;2022-08-14T10:44:13;2.30;;;1.53;;
8151;SDS011;4117;53.622;9.958;2022-08-14T10:46:43;2.20;;;1.70;;
8151;SDS011;4117;53.622;9.958;2022-08-14T10:49:18;1.90;;;1.47;;
8151;SDS011;4117;53.622;9.958;2022-08-14T10:51:54;2.10;;;1.80;;
8151;SDS011;4117;53.622;9.958;2022-08-14T10:54:34;2.20;;;1.43;;
8151;SDS011;4117;53.622;9.958;2022-08-14T10:57:16;2.90;;;1.80;;
8151;SDS011;4117;53.622;9.958;2022-08-14T10:59:49;3.20;;;1.60;;
8151;SDS011;4117;53.622;9.958;2022-08-14T11:02:22;2.03;;;1.63;;
8151;SDS011;4117;53.622;9.958;2022-08-14T11:05:00;2.90;;;1.50;;
8151;SDS011;4117;53.622;9.958;2022-08-14T11:07:30;3.03;;;1.90;;
8151;SDS011;4117;53.622;9.958;2022-08-14T11:09:59;1.67;;;1.50;;
8151;SDS011;4117;53.622;9.958;2022-08-14T11:12:37;2.43;;;1.63;;
8151;SDS011;4117;53.622;9.958;2022-08-14T11:15:06;3.03;;;1.60;;
8151;SDS011;4117;53.622;9.958;2022-08-14T11:17:34;2.73;;;1.80;;
8151;SDS011;4117;53.622;9.958;2022-08-14T11:20:01;1.93;;;1.60;;
8151;SDS011;4117;53.622;9.958;2022-08-14T11:22:30;2.30;;;1.60;;
8151;SDS011;4117;53.622;9.958;2022-08-14T11:25:00;3.10;;;1.53;;
8151;SDS011;4117;53.622;9.958;2022-08-14T11:27:29;2.70;;;1.90;;
8151;SDS011;4117;53.622;9.958;2022-08-14T11:29:59;2.33;;;1.47;;
8151;SDS011;4117;53.622;9.958;2022-08-14T11:32:29;4.00;;;1.60;;
8151;SDS011;4117;53.622;9.958;2022-08-14T11:34:56;1.50;;;1.40;;
8151;SDS011;4117;53.622;9.958;2022-08-14T11:37:23;2.30;;;1.50;;
8151;SDS011;4117;53.622;9.958;2022-08-14T11:39:50;1.90;;;1.57;;
8151;SDS011;4117;53.622;9.958;2022-08-14T11:42:22;2.07;;;1.57;;
8151;SDS011;4117;53.622;9.958;2022-08-14T11:44:51;2.17;;;1.50;;
8151;SDS011;4117;53.622;9.958;2022-08-14T11:47:19;3.33;;;1.63;;
8151;SDS011;4117;53.622;9.958;2022-08-14T11:49:46;4.17;;;1.90;;
8151;SDS011;4117;53.622;9.958;2022-08-14T11:52:14;1.77;;;1.67;;
8151;SDS011;4117;53.622;9.958;2022-08-14T11:54:43;1.80;;;1.40;;
8151;SDS011;4117;53.622;9.958;2022-08-14T11:57:14;3.63;;;1.80;;
8151;SDS011;4117;53.622;9.958;2022-08-14T11:59:43;1.50;;;1.40;;
8151;SDS011;4117;53.622;9.958;2022-08-14T12:02:11;3.53;;;1.43;;
8151;SDS011;4117;53.622;9.958;2022-08-14T12:04:47;2.30;;;1.60;;
8151;SDS011;4117;53.622;9.958;2022-08-14T12:07:15;3.53;;;1.80;;
8151;SDS011;4117;53.622;9.958;2022-08-14T12:09:42;1.60;;;1.50;;
8151;SDS011;4117;53.622;9.958;2022-08-14T12:12:14;1.77;;;1.50;;
8151;SDS011;4117;53.622;9.958;2022-08-14T12:14:50;2.20;;;1.47;;
8151;SDS011;4117;53.622;9.958;2022-08-14T12:17:20;3.40;;;1.60;;
8151;SDS011;4117;53.622;9.958;2022-08-14T12:19:49;2.70;;;1.70;;
8151;SDS011;4117;53.622;9.958;2022-08-14T12:22:17;4.00;;;1.70;;
8151;SDS011;4117;53.622;9.958;2022-08-14T12:24:48;1.97;;;1.63;;
8151;SDS011;4117;53.622;9.958;2022-08-14T12:27:15;4.77;;;1.90;;
8151;SDS011;4117;53.622;9.958;2022-08-14T12:29:52;1.43;;;1.33;;
8151;SDS011;4117;53.622;9.958;2022-08-14T12:32:19;3.83;;;1.70;;
8151;SDS011;4117;53.622;9.958;2022-08-14T12:34:51;1.90;;;1.60;;
8151;SDS011;4117;53.622;9.958;2022-08-14T12:37:27;2.17;;;1.53;;
8151;SDS011;4117;53.622;9.958;2022-08-14T12:39:55;2.13;;;1.60;;
8151;SDS011;4117;53.622;9.958;2022-08-14T12:42:33;2.00;;;1.60;;
8151;SDS011;4117;53.622;9.958;2022-08-14T12:45:02;2.20;;;1.60;;
8151;SDS011;4117;53.622;9.958;2022-08-14T12:47:29;2.73;;;1.90;;
8151;SDS011;4117;53.622;9.958;2022-08-14T12:49:57;1.90;;;1.57;;
8151;SDS011;4117;53.622;9.958;2022-08-14T12:52:28;2.93;;;1.80;;
8151;SDS011;4117;53.622;9.958;2022-08-14T12:54:57;2.80;;;1.80;;
8151;SDS011;4117;53.622;9.958;2022-08-14T12:57:32;2.67;;;1.77;;
8151;SDS011;4117;53.622;9.958;2022-08-14T13:00:10;1.90;;;1.70;;
8151;SDS011;4117;53.622;9.958;2022-08-14T13:02:43;2.43;;;1.90;;
8151;SDS011;4117;53.622;9.958;2022-08-14T13:05:12;2.57;;;1.67;;
8151;SDS011;4117;53.622;9.958;2022-08-14T13:07:40;1.70;;;1.60;;
8151;SDS011;4117;53.622;9.958;2022-08-14T13:10:08;2.20;;;1.70;;
8151;SDS011;4117;53.622;9.958;2022-08-14T13:12:38;3.20;;;1.80;;
8151;SDS011;4117;53.622;9.958;2022-08-14T13:15:06;4.73;;;1.80;;
8151;SDS011;4117;53.622;9.958;2022-08-14T13:17:40;2.07;;;1.80;;
8151;SDS011;4117;53.622;9.958;2022-08-14T13:20:09;3.43;;;1.47;;
8151;SDS011;4117;53.622;9.958;2022-08-14T13:22:38;2.03;;;1.67;;
8151;SDS011;4117;53.622;9.958;2022-08-14T13:25:07;2.47;;;1.90;;
8151;SDS011;4117;53.622;9.958;2022-08-14T13:27:35;2.27;;;1.67;;
8151;SDS011;4117;53.622;9.958;2022-08-14T13:30:03;1.83;;;1.63;;
8151;SDS011;4117;53.622;9.958;2022-08-14T13:32:33;1.73;;;1.60;;
8151;SDS011;4117;53.622;9.958;2022-08-14T13:35:04;4.80;;;1.90;;
8151;SDS011;4117;53.622;9.958;2022-08-14T13:37:32;1.70;;;1.53;;
8151;SDS011;4117;53.622;9.958;2022-08-14T13:39:59;2.30;;;1.80;;
8151;SDS011;4117;53.622;9.958;2022-08-14T13:42:27;2.10;;;1.90;;
8151;SDS011;4117;53.622;9.958;2022-08-14T13:44:54;2.03;;;1.60;;
8151;SDS011;4117;53.622;9.958;2022-08-14T13:47:23;1.90;;;1.70;;
8151;SDS011;4117;53.622;9.958;2022-08-14T13:49:55;2.17;;;1.80;;
8151;SDS011;4117;53.622;9.958;2022-08-14T13:52:24;2.53;;;1.90;;
8151;SDS011;4117;53.622;9.958;2022-08-14T13:54:53;4.67;;;1.60;;
8151;SDS011;4117;53.622;9.958;2022-08-14T13:57:25;6.77;;;2.00;;
8151;SDS011;4117;53.622;9.958;2022-08-14T13:59:53;2.37;;;1.80;;
8151;SDS011;4117;53.622;9.958;2022-08-14T14:02:23;2.93;;;1.70;;
8151;SDS011;4117;53.622;9.958;2022-08-14T14:04:52;1.93;;;1.70;;
8151;SDS011;4117;53.622;9.958;2022-08-14T14:07:22;3.37;;;1.90;;
8151;SDS011;4117;53.622;9.958;2022-08-14T14:09:49;3.97;;;1.87;;
8151;SDS011;4117;53.622;9.958;2022-08-14T14:12:20;2.73;;;2.00;;
8151;SDS011;4117;53.622;9.958;2022-08-14T14:14:48;4.77;;;2.00;;
8151;SDS011;4117;53.622;9.958;2022-08-14T14:17:16;1.97;;;1.50;;
8151;SDS011;4117;53.622;9.958;2022-08-14T14:19:48;2.37;;;1.90;;
8151;SDS011;4117;53.622;9.958;2022-08-14T14:22:17;2.47;;;1.80;;
8151;SDS011;4117;53.622;9.958;2022-08-14T14:24:44;3.27;;;1.70;;
8151;SDS011;4117;53.622;9.958;2022-08-14T14:27:12;2.33;;;1.70;;
8151;SDS011;4117;53.622;9.958;2022-08-14T14:29:43;2.40;;;1.80;;
8151;SDS011;4117;53.622;9.958;2022-08-14T14:32:11;1.73;;;1.60;;
8151;SDS011;4117;53.622;9.958;2022-08-14T14:34:39;2.00;;;1.53;;
8151;SDS011;4117;53.622;9.958;2022-08-14T14:37:07;4.53;;;1.70;;
8151;SDS011;4117;53.622;9.958;2022-08-14T14:39:40;2.07;;;1.60;;
8151;SDS011;4117;53.622;9.958;2022-08-14T14:42:10;2.23;;;1.50;;
8151;SDS011;4117;53.622;9.958;2022-08-14T14:44:39;2.23;;;1.80;;
8151;SDS011;4117;53.622;9.958;2022-08-14T14:47:07;2.07;;;1.60;;
8151;SDS011;4117;53.622;9.958;2022-08-14T14:49:35;2.60;;;1.77;;
8151;SDS011;4117;53.622;9.958;2022-08-14T14:52:04;1.93;;;1.73;;
8151;SDS011;4117;53.622;9.958;2022-08-14T14:54:33;2.27;;;1.70;;
8151;SDS011;4117;53.622;9.958;2022-08-14T14:57:02;2.40;;;1.53;;
8151;SDS011;4117;53.622;9.958;2022-08-14T14:59:30;1.80;;;1.60;;
8151;SDS011;4117;53.622;9.958;2022-08-14T15:01:59;2.50;;;1.80;;
8151;SDS011;4117;53.622;9.958;2022-08-14T15:04:30;2.07;;;1.60;;
8151;SDS011;4117;53.622;9.958;2022-08-14T15:06:58;1.87;;;1.63;;
8151;SDS011;4117;53.622;9.958;2022-08-14T15:09:25;3.67;;;1.50;;
8151;SDS011;4117;53.622;9.958;2022-08-14T15:11:52;3.47;;;1.70;;
8151;SDS011;4117;53.622;9.958;2022-08-14T15:14:22;1.90;;;1.70;;
8151;SDS011;4117;53.622;9.958;2022-08-14T15:16:50;2.10;;;1.40;;
8151;SDS011;4117;53.622;9.958;2022-08-14T15:19:17;2.17;;;1.47;;
8151;SDS011;4117;53.622;9.958;2022-08-14T15:21:46;3.57;;;1.40;;
8151;SDS011;4117;53.622;9.958;2022-08-14T15:24:14;1.80;;;1.50;;
8151;SDS011;4117;53.622;9.958;2022-08-14T15:26:41;1.73;;;1.50;;
8151;SDS011;4117;53.622;9.958;2022-08-14T15:29:09;1.60;;;1.50;;